Time;durP1;ratioP1;P1;durP2;ratioP2;P2;SDS_P1;SDS_P2;PMS_P1;PMS_P2;Temp;Humidity;BMP_temperature;BMP_pressure;BME280_temperature;BME280_humidity;BME280_pressure;Samples;Min_cycle;Max_cycle;Signal;HPM_P1;HPM_P2
2022/01/20 00:00:32;;;;;;;91.95;42.83;;;;;;;;;;5104960;28;20401;-83
2022/01/20 00:03:02;;;;;;;86.65;41.85;;;;;;;;;;5106708;28;20409;-84
2022/01/20 00:05:40;;;;;;;74.82;40.08;;;;;;;;;;5105161;28;20395;-84
2022/01/20 00:08:16;;;;;;;77.17;42.27;;;;;;;;;;5105944;28;20869;-83
2022/01/20 00:27:25;;;;;;;77.55;40.50;;;;;;;;;;5096004;28;20410;-84
2022/01/20 00:30:22;;;;;;;74.50;40.50;;;;;;;;;;5105495;28;20957;-83
2022/01/20 00:32:57;;;;;;;79.53;41.03;;;;;;;;;;5105411;28;20409;-83
2022/01/20 00:35:27;;;;;;;71.47;39.80;;;;;;;;;;5102043;28;20430;-83
2022/01/20 00:37:54;;;;;;;72.35;40.17;;;;;;;;;;5105849;28;20493;-84
2022/01/20 00:40:21;;;;;;;72.55;40.92;;;;;;;;;;5107347;28;20394;-84
2022/01/20 00:42:48;;;;;;;76.82;42.30;;;;;;;;;;5108791;28;20774;-84
2022/01/20 00:45:15;;;;;;;75.35;42.15;;;;;;;;;;5105079;28;20406;-83
2022/01/20 00:47:44;;;;;;;72.78;40.20;;;;;;;;;;5109261;28;20526;-84
2022/01/20 00:50:12;;;;;;;69.15;39.80;;;;;;;;;;5108628;28;20394;-83
2022/01/20 00:52:39;;;;;;;65.22;39.03;;;;;;;;;;5109098;28;20402;-83
2022/01/20 00:55:09;;;;;;;62.13;37.47;;;;;;;;;;5107493;28;20422;-84
2022/01/20 00:57:36;;;;;;;61.38;38.30;;;;;;;;;;5109285;28;20467;-84
2022/01/20 01:00:06;;;;;;;59.83;37.05;;;;;;;;;;5108872;28;20394;-83
2022/01/20 01:02:35;;;;;;;61.25;37.45;;;;;;;;;;5108438;28;20403;-83
2022/01/20 01:05:02;;;;;;;57.60;36.55;;;;;;;;;;5108561;28;20407;-84
2022/01/20 01:10:28;;;;;;;62.58;38.42;;;;;;;;;;5123268;27;20358;-83
2022/01/20 01:12:59;;;;;;;63.13;38.50;;;;;;;;;;5122594;27;20900;-83
2022/01/20 01:15:33;;;;;;;59.37;37.43;;;;;;;;;;5136621;27;20391;-81
2022/01/20 01:23:41;;;;;;;63.03;36.83;;;;;;;;;;5117335;27;20420;-83
2022/01/20 01:26:11;;;;;;;62.50;36.95;;;;;;;;;;5121013;27;20459;-83
2022/01/20 01:28:38;;;;;;;65.53;36.75;;;;;;;;;;5130146;27;20401;-83
2022/01/20 01:31:28;;;;;;;67.78;37.38;;;;;;;;;;5143440;27;20399;-83
2022/01/20 01:33:58;;;;;;;61.90;37.35;;;;;;;;;;5143592;27;20449;-83
2022/01/20 01:36:27;;;;;;;60.10;36.47;;;;;;;;;;5142949;27;20404;-83
2022/01/20 01:38:54;;;;;;;66.03;37.53;;;;;;;;;;5143409;27;20453;-83
2022/01/20 01:41:30;;;;;;;65.53;37.22;;;;;;;;;;5136214;27;20401;-83
2022/01/20 01:44:01;;;;;;;65.90;37.78;;;;;;;;;;5123058;27;20490;-83
2022/01/20 01:46:28;;;;;;;65.32;37.80;;;;;;;;;;5122429;27;20845;-83
2022/01/20 01:48:56;;;;;;;65.35;37.72;;;;;;;;;;5122888;27;20410;-83
2022/01/20 01:51:23;;;;;;;68.85;38.38;;;;;;;;;;5122985;27;20398;-83
2022/01/20 01:53:50;;;;;;;63.72;37.22;;;;;;;;;;5123326;27;20390;-83
2022/01/20 01:56:18;;;;;;;69.75;37.60;;;;;;;;;;5120991;27;20409;-83
2022/01/20 01:58:46;;;;;;;74.82;39.45;;;;;;;;;;5119489;28;20447;-83
2022/01/20 02:01:13;;;;;;;72.28;40.30;;;;;;;;;;5122893;27;20406;-84
2022/01/20 02:03:45;;;;;;;73.50;39.00;;;;;;;;;;5123622;27;20410;-84
2022/01/20 02:06:30;;;;;;;74.78;38.92;;;;;;;;;;5123899;28;20402;-83
2022/01/20 02:09:11;;;;;;;71.95;39.17;;;;;;;;;;5117900;27;20491;-83
2022/01/20 02:19:56;;;;;;;74.53;38.70;;;;;;;;;;5120046;27;20390;-83
2022/01/20 02:22:24;;;;;;;75.43;38.78;;;;;;;;;;5108870;27;20869;-83
2022/01/20 02:24:51;;;;;;;82.30;39.90;;;;;;;;;;5108736;27;20894;-83
2022/01/20 02:27:17;;;;;;;76.47;39.50;;;;;;;;;;5108133;27;20403;-83
2022/01/20 02:29:45;;;;;;;74.30;39.05;;;;;;;;;;5108727;28;20422;-83
2022/01/20 02:32:12;;;;;;;71.88;38.75;;;;;;;;;;5108420;28;20469;-83
2022/01/20 02:34:39;;;;;;;73.35;40.40;;;;;;;;;;5109203;27;20886;-83
2022/01/20 02:37:11;;;;;;;80.05;40.75;;;;;;;;;;5109346;27;20395;-83
2022/01/20 02:40:25;;;;;;;85.80;41.37;;;;;;;;;;5109280;27;20459;-83
2022/01/20 02:45:19;;;;;;;82.75;40.15;;;;;;;;;;5104882;27;20374;-82
2022/01/20 02:47:50;;;;;;;82.55;40.72;;;;;;;;;;5105161;27;20808;-83
2022/01/20 02:50:17;;;;;;;81.03;41.58;;;;;;;;;;5104545;28;20422;-83
2022/01/20 02:52:46;;;;;;;82.43;40.63;;;;;;;;;;5108543;27;20398;-83
2022/01/20 02:55:12;;;;;;;82.70;40.67;;;;;;;;;;5101976;27;20395;-83
2022/01/20 02:57:39;;;;;;;79.15;40.47;;;;;;;;;;5106633;27;20405;-83
2022/01/20 03:00:08;;;;;;;83.75;40.45;;;;;;;;;;5106268;27;20399;-83
2022/01/20 03:02:35;;;;;;;79.32;40.00;;;;;;;;;;5117867;27;20402;-84
2022/01/20 03:05:01;;;;;;;77.30;38.72;;;;;;;;;;5118814;27;20407;-83
2022/01/20 03:07:28;;;;;;;78.57;40.58;;;;;;;;;;5117952;27;20424;-83
2022/01/20 03:09:56;;;;;;;79.90;39.08;;;;;;;;;;5119379;27;20806;-83
2022/01/20 03:12:23;;;;;;;83.50;40.20;;;;;;;;;;5114971;27;20531;-83
2022/01/20 03:14:50;;;;;;;80.73;39.80;;;;;;;;;;5116782;27;20451;-84
2022/01/20 03:17:17;;;;;;;78.43;38.75;;;;;;;;;;5120116;27;20404;-83
2022/01/20 03:19:44;;;;;;;75.72;38.50;;;;;;;;;;5116959;27;20398;-83
2022/01/20 03:22:11;;;;;;;78.60;38.15;;;;;;;;;;5119365;27;20416;-83
2022/01/20 03:24:38;;;;;;;82.65;38.45;;;;;;;;;;5115031;27;20404;-83
2022/01/20 03:27:06;;;;;;;81.47;38.90;;;;;;;;;;5116006;27;20461;-83
2022/01/20 03:29:34;;;;;;;72.68;36.25;;;;;;;;;;5112737;27;20422;-83
2022/01/20 03:32:01;;;;;;;70.28;37.13;;;;;;;;;;5117317;27;20393;-83
2022/01/20 03:34:28;;;;;;;74.13;37.13;;;;;;;;;;5117003;27;20471;-84
2022/01/20 03:36:55;;;;;;;72.18;36.80;;;;;;;;;;5119208;27;20742;-83
2022/01/20 03:39:21;;;;;;;72.78;37.10;;;;;;;;;;5116177;27;20402;-83
2022/01/20 03:41:48;;;;;;;73.60;38.13;;;;;;;;;;5117962;27;20397;-83
2022/01/20 03:44:17;;;;;;;78.35;37.40;;;;;;;;;;5119332;27;20884;-83
2022/01/20 03:46:44;;;;;;;71.65;37.42;;;;;;;;;;5116659;27;20793;-83
2022/01/20 03:49:25;;;;;;;67.65;35.22;;;;;;;;;;5119182;27;20409;-83
2022/01/20 03:51:51;;;;;;;65.43;34.67;;;;;;;;;;5113263;27;20498;-83
2022/01/20 03:54:18;;;;;;;71.10;36.83;;;;;;;;;;5111841;27;20918;-83
2022/01/20 03:56:45;;;;;;;67.90;35.97;;;;;;;;;;5111235;27;20405;-83
2022/01/20 03:59:12;;;;;;;66.70;35.20;;;;;;;;;;5116506;27;20840;-83
2022/01/20 04:01:40;;;;;;;65.35;34.40;;;;;;;;;;5118403;27;20402;-83
2022/01/20 04:04:07;;;;;;;64.30;34.88;;;;;;;;;;5117094;27;20872;-83
2022/01/20 04:06:34;;;;;;;66.60;35.70;;;;;;;;;;5117347;27;20473;-83
2022/01/20 04:09:00;;;;;;;68.53;35.92;;;;;;;;;;5117822;27;20413;-83
2022/01/20 04:11:29;;;;;;;61.80;34.67;;;;;;;;;;5114297;27;20800;-83
2022/01/20 04:13:57;;;;;;;68.32;35.35;;;;;;;;;;5118504;27;20771;-83
2022/01/20 04:16:33;;;;;;;67.18;36.40;;;;;;;;;;5116092;27;20799;-84
2022/01/20 04:19:04;;;;;;;65.60;34.45;;;;;;;;;;5117761;27;20490;-83
2022/01/20 04:21:32;;;;;;;65.30;34.75;;;;;;;;;;5116984;27;20455;-84
2022/01/20 04:24:01;;;;;;;68.75;35.53;;;;;;;;;;5116539;27;20416;-84
2022/01/20 04:26:29;;;;;;;71.85;36.60;;;;;;;;;;5114081;27;20407;-83
2022/01/20 04:28:57;;;;;;;63.08;34.28;;;;;;;;;;5117938;27;20476;-83
2022/01/20 04:31:24;;;;;;;69.28;35.10;;;;;;;;;;5115782;27;20402;-84
2022/01/20 04:33:51;;;;;;;62.92;34.35;;;;;;;;;;5118877;27;20400;-84
2022/01/20 04:36:20;;;;;;;64.10;35.13;;;;;;;;;;5115357;27;20808;-83
2022/01/20 04:38:47;;;;;;;67.43;35.20;;;;;;;;;;5111763;27;20395;-83
2022/01/20 04:41:13;;;;;;;64.00;34.95;;;;;;;;;;5114839;27;20450;-83
2022/01/20 04:43:40;;;;;;;68.47;34.65;;;;;;;;;;5118226;27;20413;-83
2022/01/20 04:46:13;;;;;;;74.78;35.35;;;;;;;;;;5116879;27;20435;-83
2022/01/20 04:48:59;;;;;;;74.15;36.35;;;;;;;;;;5118600;27;20400;-83
2022/01/20 04:57:16;;;;;;;68.30;33.53;;;;;;;;;;5112995;27;21026;-83
2022/01/20 04:59:44;;;;;;;67.10;34.13;;;;;;;;;;5112429;28;20403;-83
2022/01/20 05:02:11;;;;;;;63.85;34.08;;;;;;;;;;5117085;27;20467;-84
2022/01/20 05:04:39;;;;;;;66.10;33.92;;;;;;;;;;5128456;27;20399;-82
2022/01/20 05:07:08;;;;;;;69.67;33.57;;;;;;;;;;5121595;28;20476;-84
2022/01/20 05:09:35;;;;;;;72.72;33.83;;;;;;;;;;5105633;28;20422;-83
2022/01/20 05:12:06;;;;;;;69.40;33.67;;;;;;;;;;5109035;28;20509;-83
2022/01/20 05:14:33;;;;;;;68.25;34.03;;;;;;;;;;5105582;28;20897;-83
2022/01/20 05:17:00;;;;;;;63.88;33.25;;;;;;;;;;5105898;28;20800;-82
2022/01/20 05:19:29;;;;;;;65.32;33.38;;;;;;;;;;5105205;28;20402;-83
2022/01/20 05:21:56;;;;;;;67.15;33.80;;;;;;;;;;5105856;28;20398;-83
2022/01/20 05:24:24;;;;;;;58.67;32.83;;;;;;;;;;5105118;28;20411;-83
2022/01/20 05:26:52;;;;;;;63.10;32.75;;;;;;;;;;5105632;28;20409;-83
2022/01/20 05:29:20;;;;;;;64.95;33.13;;;;;;;;;;5105311;28;20460;-83
2022/01/20 05:31:47;;;;;;;64.00;32.65;;;;;;;;;;5102919;28;20406;-83
2022/01/20 05:34:15;;;;;;;62.88;32.72;;;;;;;;;;5105343;28;20877;-84
2022/01/20 05:36:42;;;;;;;58.92;32.63;;;;;;;;;;5106196;28;20862;-84
2022/01/20 05:39:10;;;;;;;59.92;31.80;;;;;;;;;;5105621;28;20401;-83
2022/01/20 05:41:38;;;;;;;57.90;32.15;;;;;;;;;;5110533;28;20406;-83
2022/01/20 05:44:05;;;;;;;62.57;33.70;;;;;;;;;;5105634;28;20882;-84
2022/01/20 05:46:38;;;;;;;61.67;33.90;;;;;;;;;;5105445;28;21433;-84
2022/01/20 05:49:08;;;;;;;63.13;32.72;;;;;;;;;;5105375;28;20767;-83
2022/01/20 05:51:35;;;;;;;62.70;33.85;;;;;;;;;;5104803;28;20444;-84
2022/01/20 05:54:03;;;;;;;64.00;33.17;;;;;;;;;;5110389;28;20411;-84
2022/01/20 05:56:29;;;;;;;60.90;33.00;;;;;;;;;;5109068;27;20754;-84
2022/01/20 05:58:59;;;;;;;66.20;34.65;;;;;;;;;;5107270;28;20395;-83
2022/01/20 06:01:27;;;;;;;63.15;33.83;;;;;;;;;;5108276;28;20690;-84
2022/01/20 06:03:54;;;;;;;62.17;32.95;;;;;;;;;;5108814;28;20415;-84
2022/01/20 06:06:22;;;;;;;65.43;34.47;;;;;;;;;;5108935;28;20403;-83
2022/01/20 06:08:49;;;;;;;64.63;34.53;;;;;;;;;;5103499;28;20587;-84
2022/01/20 06:11:16;;;;;;;65.63;34.10;;;;;;;;;;5112158;27;20430;-82
2022/01/20 06:13:43;;;;;;;66.20;33.90;;;;;;;;;;5105353;28;20394;-84
2022/01/20 06:16:11;;;;;;;71.22;35.78;;;;;;;;;;5104048;28;20394;-83
2022/01/20 06:18:38;;;;;;;60.22;32.85;;;;;;;;;;5099129;28;20398;-83
2022/01/20 06:21:05;;;;;;;64.05;34.25;;;;;;;;;;5098701;28;20398;-84
2022/01/20 06:23:32;;;;;;;61.65;35.03;;;;;;;;;;5097266;28;20416;-83
2022/01/20 06:26:04;;;;;;;60.45;33.30;;;;;;;;;;5099248;27;20418;-84
2022/01/20 06:28:32;;;;;;;59.42;33.28;;;;;;;;;;5098530;27;20840;-84
2022/01/20 06:30:58;;;;;;;56.25;32.05;;;;;;;;;;5097374;27;20478;-84
2022/01/20 06:33:27;;;;;;;54.47;32.53;;;;;;;;;;5099109;27;20518;-83
2022/01/20 06:35:54;;;;;;;53.83;31.73;;;;;;;;;;5097984;27;20478;-84
2022/01/20 06:38:21;;;;;;;55.95;32.25;;;;;;;;;;5097260;27;20403;-83
2022/01/20 06:40:47;;;;;;;52.43;31.87;;;;;;;;;;5108073;28;20465;-84
2022/01/20 06:43:14;;;;;;;52.33;31.90;;;;;;;;;;5107507;27;20399;-83
2022/01/20 06:45:41;;;;;;;56.15;31.70;;;;;;;;;;5102867;28;20452;-83
2022/01/20 06:48:08;;;;;;;53.50;32.67;;;;;;;;;;5111232;27;20399;-82
2022/01/20 06:50:37;;;;;;;52.25;32.05;;;;;;;;;;5103829;27;20430;-83
2022/01/20 06:53:04;;;;;;;54.15;32.53;;;;;;;;;;5113662;27;20763;-83
2022/01/20 06:55:31;;;;;;;54.03;32.17;;;;;;;;;;5102767;27;20403;-82
2022/01/20 06:57:58;;;;;;;55.08;33.00;;;;;;;;;;5106781;27;20453;-83
2022/01/20 07:00:26;;;;;;;53.33;32.10;;;;;;;;;;5102087;27;20470;-83
2022/01/20 07:02:53;;;;;;;59.55;33.60;;;;;;;;;;5114463;27;20401;-82
2022/01/20 07:05:22;;;;;;;57.75;33.58;;;;;;;;;;5107998;27;20400;-83
2022/01/20 07:07:50;;;;;;;59.13;33.97;;;;;;;;;;5104854;28;20405;-82
2022/01/20 07:10:19;;;;;;;61.05;35.00;;;;;;;;;;5103424;27;20414;-82
2022/01/20 07:12:47;;;;;;;58.80;33.72;;;;;;;;;;5111593;27;20404;-83
2022/01/20 07:15:15;;;;;;;56.22;32.25;;;;;;;;;;5107913;27;20894;-83
2022/01/20 07:17:42;;;;;;;62.35;34.78;;;;;;;;;;5121740;27;20401;-81
2022/01/20 07:20:10;;;;;;;61.08;35.47;;;;;;;;;;5106639;27;20473;-83
2022/01/20 07:22:37;;;;;;;59.70;35.72;;;;;;;;;;5109525;27;21319;-84
2022/01/20 07:25:06;;;;;;;62.25;33.80;;;;;;;;;;5113506;27;20433;-82
2022/01/20 07:27:33;;;;;;;59.30;33.92;;;;;;;;;;5110071;27;20407;-82
2022/01/20 07:30:00;;;;;;;58.78;34.63;;;;;;;;;;5106769;27;20794;-83
2022/01/20 07:32:27;;;;;;;60.90;35.20;;;;;;;;;;5104437;27;20452;-83
2022/01/20 07:34:54;;;;;;;57.90;33.78;;;;;;;;;;5106039;27;20395;-83
2022/01/20 07:37:21;;;;;;;59.65;34.85;;;;;;;;;;5105254;28;20443;-82
2022/01/20 07:39:47;;;;;;;60.50;34.53;;;;;;;;;;5104760;28;20410;-82
2022/01/20 07:42:16;;;;;;;60.38;33.63;;;;;;;;;;5102083;28;20448;-81
2022/01/20 07:44:43;;;;;;;60.22;35.17;;;;;;;;;;5101760;27;20452;-82
2022/01/20 07:47:10;;;;;;;55.83;34.50;;;;;;;;;;5112468;27;20402;-82
2022/01/20 07:49:36;;;;;;;60.75;35.10;;;;;;;;;;5109222;27;20415;-83
2022/01/20 07:52:04;;;;;;;59.75;34.17;;;;;;;;;;5108060;28;20429;-83
2022/01/20 07:54:31;;;;;;;57.60;33.85;;;;;;;;;;5107818;28;21164;-85
2022/01/20 07:56:57;;;;;;;61.40;34.88;;;;;;;;;;5121409;27;20401;-84
2022/01/20 07:59:26;;;;;;;59.20;34.17;;;;;;;;;;5128119;27;20445;-84
2022/01/20 08:01:53;;;;;;;62.33;35.43;;;;;;;;;;5108896;27;20405;-84
2022/01/20 08:04:20;;;;;;;61.80;35.42;;;;;;;;;;5104138;27;20422;-84
2022/01/20 08:06:47;;;;;;;61.53;36.08;;;;;;;;;;5106519;27;20408;-83
2022/01/20 08:09:14;;;;;;;62.90;36.43;;;;;;;;;;5105656;27;20598;-84
2022/01/20 08:11:43;;;;;;;61.97;36.28;;;;;;;;;;5106383;27;20414;-84
2022/01/20 08:14:10;;;;;;;62.80;36.50;;;;;;;;;;5109599;27;20402;-84
2022/01/20 08:16:38;;;;;;;65.03;38.67;;;;;;;;;;5105431;28;20798;-84
2022/01/20 08:19:05;;;;;;;65.47;37.10;;;;;;;;;;5107578;27;20418;-83
2022/01/20 08:21:32;;;;;;;66.43;36.97;;;;;;;;;;5106062;27;20755;-81
2022/01/20 08:23:59;;;;;;;67.65;37.15;;;;;;;;;;5068623;28;20467;-81
2022/01/20 08:26:26;;;;;;;63.95;36.30;;;;;;;;;;5096182;28;20740;-82
2022/01/20 08:28:53;;;;;;;64.93;37.40;;;;;;;;;;5099050;27;20463;-81
2022/01/20 08:31:20;;;;;;;64.90;37.83;;;;;;;;;;5097413;27;20414;-81
2022/01/20 08:33:48;;;;;;;65.90;38.00;;;;;;;;;;5096655;27;20401;-83
2022/01/20 08:36:15;;;;;;;60.67;37.40;;;;;;;;;;5103509;27;20406;-82
2022/01/20 08:38:42;;;;;;;64.47;38.17;;;;;;;;;;5101509;27;20498;-82
2022/01/20 08:41:10;;;;;;;64.35;36.72;;;;;;;;;;5104525;27;20406;-82
2022/01/20 08:43:39;;;;;;;64.10;36.65;;;;;;;;;;5104592;27;20479;-83
2022/01/20 08:46:08;;;;;;;59.22;37.03;;;;;;;;;;5102375;27;20410;-83
2022/01/20 08:48:36;;;;;;;62.77;37.83;;;;;;;;;;5097795;28;20497;-82
2022/01/20 08:51:07;;;;;;;65.57;37.55;;;;;;;;;;5100449;28;20423;-82
2022/01/20 08:53:34;;;;;;;66.50;37.67;;;;;;;;;;5109308;27;20410;-83
2022/01/20 08:56:02;;;;;;;65.60;38.00;;;;;;;;;;5101760;28;20390;-81
2022/01/20 08:58:31;;;;;;;63.17;37.30;;;;;;;;;;5105555;28;20805;-81
2022/01/20 09:00:59;;;;;;;62.58;38.95;;;;;;;;;;5103768;28;20890;-83
2022/01/20 09:03:26;;;;;;;64.63;38.45;;;;;;;;;;5097967;28;20896;-81
2022/01/20 09:05:55;;;;;;;65.93;38.45;;;;;;;;;;5103760;28;20801;-82
2022/01/20 09:08:26;;;;;;;66.43;38.03;;;;;;;;;;5103044;28;20444;-82
2022/01/20 09:10:55;;;;;;;63.42;37.70;;;;;;;;;;5098016;28;20407;-79
2022/01/20 09:16:06;;;;;;;68.05;39.13;;;;;;;;;;5099410;28;20390;-81
2022/01/20 09:18:34;;;;;;;64.50;38.38;;;;;;;;;;5103988;28;20407;-81
2022/01/20 09:21:00;;;;;;;67.95;38.70;;;;;;;;;;5094871;28;20417;-80
2022/01/20 09:23:30;;;;;;;72.47;40.10;;;;;;;;;;5093241;28;20400;-80
2022/01/20 09:25:57;;;;;;;69.18;40.08;;;;;;;;;;5095733;28;20392;-80
2022/01/20 09:28:25;;;;;;;71.15;39.67;;;;;;;;;;5092911;28;20396;-81
2022/01/20 09:30:57;;;;;;;70.10;41.20;;;;;;;;;;5098957;28;20410;-81
2022/01/20 09:33:27;;;;;;;66.45;40.40;;;;;;;;;;5096093;28;20428;-80
2022/01/20 09:35:54;;;;;;;66.38;38.92;;;;;;;;;;5099602;28;20533;-81
2022/01/20 09:38:21;;;;;;;70.32;40.72;;;;;;;;;;5101688;27;20740;-81
2022/01/20 09:40:49;;;;;;;70.85;40.60;;;;;;;;;;5099945;27;20396;-81
2022/01/20 09:43:17;;;;;;;75.03;41.22;;;;;;;;;;5104107;27;20421;-81
2022/01/20 09:45:45;;;;;;;66.95;40.42;;;;;;;;;;5109805;27;20397;-82
2022/01/20 09:48:13;;;;;;;70.68;41.42;;;;;;;;;;5105571;27;20444;-83
2022/01/20 09:50:40;;;;;;;73.47;42.38;;;;;;;;;;5102820;27;20401;-82
2022/01/20 09:53:06;;;;;;;72.70;42.25;;;;;;;;;;5103738;27;20409;-81
2022/01/20 09:55:35;;;;;;;69.60;40.92;;;;;;;;;;5099721;27;20398;-81
2022/01/20 09:58:04;;;;;;;96.10;51.10;;;;;;;;;;5100116;27;20771;-81
2022/01/20 10:00:31;;;;;;;70.22;42.30;;;;;;;;;;5098489;28;20400;-81
2022/01/20 10:03:00;;;;;;;64.97;40.23;;;;;;;;;;5098865;28;20407;-81
2022/01/20 10:05:30;;;;;;;67.13;38.75;;;;;;;;;;5099558;28;20409;-81
2022/01/20 10:08:02;;;;;;;67.30;39.97;;;;;;;;;;5096986;28;20400;-81
2022/01/20 10:10:40;;;;;;;66.32;39.05;;;;;;;;;;5105542;27;20399;-81
2022/01/20 10:13:10;;;;;;;62.72;38.55;;;;;;;;;;5106317;27;20458;-81
2022/01/20 10:15:38;;;;;;;63.57;38.13;;;;;;;;;;5100952;27;20398;-83
2022/01/20 10:18:06;;;;;;;66.97;38.70;;;;;;;;;;5101644;28;20465;-83
2022/01/20 10:20:34;;;;;;;59.80;36.70;;;;;;;;;;5098500;27;20399;-81
2022/01/20 10:23:02;;;;;;;61.08;35.97;;;;;;;;;;5097529;28;20404;-82
2022/01/20 10:25:35;;;;;;;60.55;36.17;;;;;;;;;;5076989;28;20389;-82
2022/01/20 10:28:02;;;;;;;63.67;37.13;;;;;;;;;;5081440;28;20930;-82
2022/01/20 10:30:33;;;;;;;60.60;34.78;;;;;;;;;;5096176;28;20487;-82
2022/01/20 10:33:01;;;;;;;63.83;36.95;;;;;;;;;;5094118;27;20428;-81
2022/01/20 10:35:32;;;;;;;61.88;36.42;;;;;;;;;;5093415;28;20388;-82
2022/01/20 10:38:09;;;;;;;59.28;35.30;;;;;;;;;;5096786;28;20799;-82
2022/01/20 10:40:46;;;;;;;64.73;37.43;;;;;;;;;;5099530;28;20546;-82
2022/01/20 10:43:20;;;;;;;65.00;37.17;;;;;;;;;;5103591;27;20414;-82
2022/01/20 10:45:48;;;;;;;60.30;36.05;;;;;;;;;;5101983;27;20399;-83
2022/01/20 10:48:19;;;;;;;63.28;35.83;;;;;;;;;;5102003;28;20841;-83
2022/01/20 10:50:46;;;;;;;78.10;43.97;;;;;;;;;;5099074;27;20394;-80
2022/01/20 10:53:20;;;;;;;89.03;46.80;;;;;;;;;;5096872;28;21628;-81
2022/01/20 10:55:47;;;;;;;124.47;61.27;;;;;;;;;;5101510;28;20481;-81
2022/01/20 10:58:17;;;;;;;113.20;55.42;;;;;;;;;;5097476;28;20796;-82
2022/01/20 11:00:49;;;;;;;71.88;41.33;;;;;;;;;;5105889;27;20391;-81
2022/01/20 11:03:18;;;;;;;67.82;39.17;;;;;;;;;;5103167;28;20462;-81
2022/01/20 11:05:49;;;;;;;64.78;39.08;;;;;;;;;;5109598;27;20394;-80
2022/01/20 11:08:17;;;;;;;56.58;34.33;;;;;;;;;;5105654;28;20459;-81
2022/01/20 11:10:45;;;;;;;59.13;35.85;;;;;;;;;;5101223;27;20804;-79
2022/01/20 11:13:12;;;;;;;60.25;37.80;;;;;;;;;;5101061;28;20425;-81
2022/01/20 11:15:40;;;;;;;54.05;33.85;;;;;;;;;;5105730;27;21162;-83
2022/01/20 11:18:09;;;;;;;57.47;33.78;;;;;;;;;;5104378;27;20485;-84
2022/01/20 11:20:42;;;;;;;55.05;32.00;;;;;;;;;;5105661;27;20434;-82
2022/01/20 11:23:09;;;;;;;58.47;34.40;;;;;;;;;;5102113;27;20445;-81
2022/01/20 11:25:39;;;;;;;55.47;33.20;;;;;;;;;;5077479;28;21372;-81
2022/01/20 11:28:08;;;;;;;56.35;33.45;;;;;;;;;;5089847;28;20756;-82
2022/01/20 11:30:39;;;;;;;56.88;33.47;;;;;;;;;;5094919;27;20443;-81
2022/01/20 11:33:08;;;;;;;53.23;32.97;;;;;;;;;;5097007;27;20432;-82
2022/01/20 11:35:46;;;;;;;54.50;33.00;;;;;;;;;;5096932;27;20408;-81
2022/01/20 11:38:14;;;;;;;56.35;33.10;;;;;;;;;;5101285;28;21420;-81
2022/01/20 11:40:53;;;;;;;59.45;34.15;;;;;;;;;;5097078;27;20405;-80
2022/01/20 11:43:32;;;;;;;64.32;36.88;;;;;;;;;;5096819;27;20397;-82
2022/01/20 11:46:10;;;;;;;61.15;36.08;;;;;;;;;;5100923;28;20874;-81
2022/01/20 11:48:37;;;;;;;57.13;32.67;;;;;;;;;;5094429;28;21195;-81
2022/01/20 11:51:07;;;;;;;57.83;32.88;;;;;;;;;;5099036;27;20393;-81
2022/01/20 11:53:40;;;;;;;55.97;33.45;;;;;;;;;;5100275;27;20469;-81
2022/01/20 11:56:08;;;;;;;57.70;34.20;;;;;;;;;;5105872;27;20501;-81
2022/01/20 11:58:35;;;;;;;58.87;35.43;;;;;;;;;;5094784;27;20405;-80
2022/01/20 12:01:04;;;;;;;66.75;36.42;;;;;;;;;;5101085;27;20412;-81
2022/01/20 12:03:32;;;;;;;68.30;36.67;;;;;;;;;;5100117;27;20407;-81
2022/01/20 12:06:00;;;;;;;69.53;37.20;;;;;;;;;;5101324;28;20459;-82
2022/01/20 12:08:29;;;;;;;70.05;38.45;;;;;;;;;;5090391;27;20514;-81
2022/01/20 12:10:59;;;;;;;69.20;36.70;;;;;;;;;;5094495;27;20466;-81
2022/01/20 12:13:28;;;;;;;66.07;36.67;;;;;;;;;;5093715;28;20418;-81
2022/01/20 12:15:57;;;;;;;66.82;37.15;;;;;;;;;;5099558;27;20394;-82
2022/01/20 12:18:24;;;;;;;65.13;35.80;;;;;;;;;;5099099;28;20875;-83
2022/01/20 12:20:51;;;;;;;67.80;35.67;;;;;;;;;;5107014;28;20391;-82
2022/01/20 12:23:19;;;;;;;63.53;35.43;;;;;;;;;;5093848;27;20950;-84
2022/01/20 12:25:48;;;;;;;65.90;35.63;;;;;;;;;;5106551;27;20466;-83
2022/01/20 12:28:17;;;;;;;64.38;36.45;;;;;;;;;;5096849;28;20402;-83
2022/01/20 12:30:47;;;;;;;70.43;37.50;;;;;;;;;;5094234;28;20482;-83
2022/01/20 12:33:15;;;;;;;65.90;36.42;;;;;;;;;;5097693;27;20495;-84
2022/01/20 12:35:44;;;;;;;68.78;37.00;;;;;;;;;;5095815;27;20503;-84
2022/01/20 12:38:20;;;;;;;72.25;37.88;;;;;;;;;;5098112;27;20432;-82
2022/01/20 12:40:59;;;;;;;73.93;38.45;;;;;;;;;;5105669;27;20412;-83
2022/01/20 12:43:38;;;;;;;71.82;38.35;;;;;;;;;;5099965;27;20500;-82
2022/01/20 12:46:06;;;;;;;80.00;41.22;;;;;;;;;;5101790;27;20422;-83
2022/01/20 12:48:34;;;;;;;72.07;38.45;;;;;;;;;;5102225;27;20793;-83
2022/01/20 12:51:04;;;;;;;75.40;39.42;;;;;;;;;;5095427;28;20408;-82
2022/01/20 12:53:36;;;;;;;78.00;41.83;;;;;;;;;;5099261;28;20521;-83
2022/01/20 12:56:05;;;;;;;81.25;43.17;;;;;;;;;;5101695;27;20421;-83
2022/01/20 12:58:43;;;;;;;82.40;43.35;;;;;;;;;;5094176;27;20392;-82
2022/01/20 13:01:10;;;;;;;87.03;44.65;;;;;;;;;;5093307;28;20410;-81
2022/01/20 13:03:38;;;;;;;84.72;44.63;;;;;;;;;;5098981;28;20406;-81
2022/01/20 13:06:08;;;;;;;84.63;44.55;;;;;;;;;;5094367;28;20396;-81
2022/01/20 13:08:41;;;;;;;91.43;46.00;;;;;;;;;;5099243;28;20412;-80
2022/01/20 13:11:14;;;;;;;89.70;46.17;;;;;;;;;;5094322;28;20493;-82
2022/01/20 13:13:52;;;;;;;90.47;47.42;;;;;;;;;;5087806;28;20898;-81
2022/01/20 13:16:20;;;;;;;85.43;46.45;;;;;;;;;;5090308;28;20465;-80
2022/01/20 13:18:54;;;;;;;94.45;48.53;;;;;;;;;;5094464;28;20478;-81
2022/01/20 13:21:27;;;;;;;84.18;45.83;;;;;;;;;;5098665;28;20402;-81
2022/01/20 13:23:58;;;;;;;87.10;46.45;;;;;;;;;;5100727;28;20440;-81
2022/01/20 13:26:28;;;;;;;89.38;47.50;;;;;;;;;;5104863;28;20399;-81
2022/01/20 13:29:00;;;;;;;90.72;46.70;;;;;;;;;;5102484;28;20408;-81
2022/01/20 13:31:28;;;;;;;84.93;46.13;;;;;;;;;;5103231;28;20398;-81
2022/01/20 13:33:59;;;;;;;80.13;44.53;;;;;;;;;;5095745;28;20467;-82
2022/01/20 13:36:38;;;;;;;79.28;44.63;;;;;;;;;;5100056;28;20392;-82
2022/01/20 13:39:06;;;;;;;83.30;45.50;;;;;;;;;;5095489;28;20410;-82
2022/01/20 13:41:36;;;;;;;79.72;44.28;;;;;;;;;;5099495;28;20892;-82
2022/01/20 13:47:04;;;;;;;76.30;42.10;;;;;;;;;;5099221;28;20391;-82
2022/01/20 13:49:32;;;;;;;82.68;44.20;;;;;;;;;;5093623;28;20452;-82
2022/01/20 13:52:03;;;;;;;99.30;49.40;;;;;;;;;;5095692;28;20422;-82
2022/01/20 13:54:38;;;;;;;204.80;90.90;;;;;;;;;;5096314;28;20487;-83
2022/01/20 13:57:09;;;;;;;85.47;45.17;;;;;;;;;;5104706;28;20452;-82
2022/01/20 13:59:47;;;;;;;80.17;43.57;;;;;;;;;;5097086;28;20496;-82
2022/01/20 14:02:15;;;;;;;73.57;42.63;;;;;;;;;;5091654;28;20403;-81
2022/01/20 14:04:44;;;;;;;74.07;42.60;;;;;;;;;;5093104;28;20401;-82
2022/01/20 14:07:12;;;;;;;75.93;41.45;;;;;;;;;;5099339;28;20399;-82
2022/01/20 14:09:40;;;;;;;77.20;42.70;;;;;;;;;;5096553;28;20400;-81
2022/01/20 14:12:11;;;;;;;75.53;42.33;;;;;;;;;;5091588;28;20407;-82
2022/01/20 14:14:39;;;;;;;75.60;42.50;;;;;;;;;;5091928;28;20908;-82
2022/01/20 14:17:17;;;;;;;79.47;42.30;;;;;;;;;;5104596;27;20430;-82
2022/01/20 14:19:46;;;;;;;79.22;43.70;;;;;;;;;;5099515;27;20410;-81
2022/01/20 14:22:14;;;;;;;84.75;43.88;;;;;;;;;;5094780;28;20395;-80
2022/01/20 14:24:42;;;;;;;84.50;43.92;;;;;;;;;;5096476;28;20887;-82
2022/01/20 14:27:15;;;;;;;81.47;44.80;;;;;;;;;;5109184;27;20501;-82
2022/01/20 14:29:45;;;;;;;82.25;45.17;;;;;;;;;;5116370;27;20902;-81
2022/01/20 14:32:14;;;;;;;84.20;44.55;;;;;;;;;;5108329;28;20402;-82
2022/01/20 14:34:42;;;;;;;87.60;46.15;;;;;;;;;;5105685;28;20395;-80
2022/01/20 14:37:11;;;;;;;83.50;45.88;;;;;;;;;;5117396;27;20855;-82
2022/01/20 14:39:40;;;;;;;82.38;44.33;;;;;;;;;;5096335;27;20421;-82
2022/01/20 14:42:10;;;;;;;78.82;43.30;;;;;;;;;;5096955;28;20509;-82
2022/01/20 14:44:39;;;;;;;85.03;43.05;;;;;;;;;;5109476;27;20453;-81
2022/01/20 14:47:09;;;;;;;81.05;43.22;;;;;;;;;;5108059;27;20409;-81
2022/01/20 14:49:38;;;;;;;85.25;43.38;;;;;;;;;;5107981;27;20936;-82
2022/01/20 14:52:07;;;;;;;84.20;43.78;;;;;;;;;;5108138;27;20434;-82
2022/01/20 14:54:37;;;;;;;82.47;43.27;;;;;;;;;;5105918;27;20888;-81
2022/01/20 14:57:05;;;;;;;85.72;42.10;;;;;;;;;;5106215;27;20756;-82
2022/01/20 14:59:33;;;;;;;81.90;41.77;;;;;;;;;;5105341;27;20399;-81
2022/01/20 15:02:03;;;;;;;81.83;43.30;;;;;;;;;;5109921;27;20401;-82
2022/01/20 15:04:32;;;;;;;82.22;43.08;;;;;;;;;;5099960;27;20865;-81
2022/01/20 15:07:00;;;;;;;86.00;43.72;;;;;;;;;;5106749;27;20440;-82
2022/01/20 15:09:29;;;;;;;82.32;43.47;;;;;;;;;;5108805;27;20394;-81
2022/01/20 15:11:58;;;;;;;83.63;42.20;;;;;;;;;;5107922;27;20397;-81
2022/01/20 15:14:26;;;;;;;87.85;44.30;;;;;;;;;;5101694;27;20428;-81